Rush, Ohio
Current Conditions -  °F | °C
As of 8:53 PM on Monday 24 Nov 2014 (Local Time) from KPHD Reporting Station
Overcast Overcast  
Wind Chill: 40°   Ceiling: 4000
Heat Index: 46°   Visibility: 10mi
Dew Point: 31°   Wind: 13mph
Humidity: 56%   Direction: 230°SW
Pressure: 29.81"   Gusts: 25mph
Location:  40.3767°N, 81.2875°W
Report Text: KPHD 250153Z AUTO 23011G22KT 10SM OVC040 08/M01 A2981 RMK AO2 PK WND 26026/0102 SLP094 T00781006
Loading
Personal Weather Stations






























Interactive Weather Map New forecast layout! Learn more

10-Day Weather Forecast

Advertisements
Track Severe Weather on mobile